sensor_id;sensor_type;location;lat;lon;timestamp;P1;durP1;ratioP1;P2;durP2;ratioP2
4521;SDS011;2273;48.464;11.926;2023-02-10T00:00:31;60.67;;;29.70;;
4521;SDS011;2273;48.464;11.926;2023-02-10T00:02:56;62.90;;;31.80;;
4521;SDS011;2273;48.464;11.926;2023-02-10T00:05:22;67.57;;;34.43;;
4521;SDS011;2273;48.464;11.926;2023-02-10T00:07:47;60.27;;;32.80;;
4521;SDS011;2273;48.464;11.926;2023-02-10T00:10:13;66.33;;;31.63;;
4521;SDS011;2273;48.464;11.926;2023-02-10T00:12:38;62.83;;;31.23;;
4521;SDS011;2273;48.464;11.926;2023-02-10T00:15:04;68.07;;;32.60;;
4521;SDS011;2273;48.464;11.926;2023-02-10T00:17:30;68.00;;;33.30;;
4521;SDS011;2273;48.464;11.926;2023-02-10T00:19:55;67.07;;;33.93;;
4521;SDS011;2273;48.464;11.926;2023-02-10T00:22:21;68.50;;;33.87;;
4521;SDS011;2273;48.464;11.926;2023-02-10T00:24:46;62.83;;;32.43;;
4521;SDS011;2273;48.464;11.926;2023-02-10T00:27:11;63.03;;;32.93;;
4521;SDS011;2273;48.464;11.926;2023-02-10T00:29:37;57.63;;;30.03;;
4521;SDS011;2273;48.464;11.926;2023-02-10T00:32:02;62.23;;;31.00;;
4521;SDS011;2273;48.464;11.926;2023-02-10T00:34:28;58.83;;;29.93;;
4521;SDS011;2273;48.464;11.926;2023-02-10T00:36:53;64.40;;;30.53;;
4521;SDS011;2273;48.464;11.926;2023-02-10T00:39:19;59.20;;;29.67;;
4521;SDS011;2273;48.464;11.926;2023-02-10T00:41:44;63.97;;;30.27;;
4521;SDS011;2273;48.464;11.926;2023-02-10T00:44:10;57.60;;;30.20;;
4521;SDS011;2273;48.464;11.926;2023-02-10T00:46:35;66.40;;;29.60;;
4521;SDS011;2273;48.464;11.926;2023-02-10T00:49:03;55.13;;;28.50;;
4521;SDS011;2273;48.464;11.926;2023-02-10T00:51:29;64.80;;;31.07;;
4521;SDS011;2273;48.464;11.926;2023-02-10T00:53:55;59.45;;;29.85;;
4521;SDS011;2273;48.464;11.926;2023-02-10T00:56:21;56.67;;;29.20;;
4521;SDS011;2273;48.464;11.926;2023-02-10T00:58:47;64.87;;;31.87;;
4521;SDS011;2273;48.464;11.926;2023-02-10T01:01:13;64.10;;;29.77;;
4521;SDS011;2273;48.464;11.926;2023-02-10T01:03:39;58.73;;;31.00;;
4521;SDS011;2273;48.464;11.926;2023-02-10T01:06:05;58.63;;;29.15;;
4521;SDS011;2273;48.464;11.926;2023-02-10T01:08:30;64.63;;;30.25;;
4521;SDS011;2273;48.464;11.926;2023-02-10T01:11:00;64.63;;;32.23;;
4521;SDS011;2273;48.464;11.926;2023-02-10T01:13:30;64.53;;;31.42;;
4521;SDS011;2273;48.464;11.926;2023-02-10T01:15:55;57.50;;;30.23;;
4521;SDS011;2273;48.464;11.926;2023-02-10T01:18:21;60.20;;;29.70;;
4521;SDS011;2273;48.464;11.926;2023-02-10T01:20:46;66.57;;;31.90;;
4521;SDS011;2273;48.464;11.926;2023-02-10T01:23:12;60.37;;;32.40;;
4521;SDS011;2273;48.464;11.926;2023-02-10T01:25:38;63.30;;;32.50;;
4521;SDS011;2273;48.464;11.926;2023-02-10T01:28:03;61.03;;;32.15;;
4521;SDS011;2273;48.464;11.926;2023-02-10T01:30:29;64.23;;;32.17;;
4521;SDS011;2273;48.464;11.926;2023-02-10T01:32:58;73.15;;;34.70;;
4521;SDS011;2273;48.464;11.926;2023-02-10T01:35:23;69.03;;;34.30;;
4521;SDS011;2273;48.464;11.926;2023-02-10T01:37:49;72.33;;;33.13;;
4521;SDS011;2273;48.464;11.926;2023-02-10T01:40:14;70.50;;;33.30;;
4521;SDS011;2273;48.464;11.926;2023-02-10T01:42:40;62.87;;;32.10;;
4521;SDS011;2273;48.464;11.926;2023-02-10T01:47:42;64.13;;;31.48;;
4521;SDS011;2273;48.464;11.926;2023-02-10T01:50:09;73.43;;;32.55;;
4521;SDS011;2273;48.464;11.926;2023-02-10T01:52:34;62.20;;;31.63;;
4521;SDS011;2273;48.464;11.926;2023-02-10T01:55:04;64.33;;;30.17;;
4521;SDS011;2273;48.464;11.926;2023-02-10T01:57:31;63.05;;;31.30;;
4521;SDS011;2273;48.464;11.926;2023-02-10T01:59:56;60.27;;;30.90;;
4521;SDS011;2273;48.464;11.926;2023-02-10T02:02:24;64.90;;;31.13;;
4521;SDS011;2273;48.464;11.926;2023-02-10T02:04:54;60.00;;;31.38;;
4521;SDS011;2273;48.464;11.926;2023-02-10T02:07:27;65.28;;;30.13;;
4521;SDS011;2273;48.464;11.926;2023-02-10T02:09:54;61.00;;;31.70;;
4521;SDS011;2273;48.464;11.926;2023-02-10T02:15:02;64.32;;;30.75;;
4521;SDS011;2273;48.464;11.926;2023-02-10T02:26:02;67.13;;;31.98;;
4521;SDS011;2273;48.464;11.926;2023-02-10T02:37:13;73.28;;;34.63;;
4521;SDS011;2273;48.464;11.926;2023-02-10T02:39:42;77.05;;;34.22;;
4521;SDS011;2273;48.464;11.926;2023-02-10T02:44:33;68.33;;;33.10;;
4521;SDS011;2273;48.464;11.926;2023-02-10T02:47:00;72.57;;;33.00;;
4521;SDS011;2273;48.464;11.926;2023-02-10T02:49:43;80.32;;;37.50;;
4521;SDS011;2273;48.464;11.926;2023-02-10T02:52:14;71.47;;;34.72;;
4521;SDS011;2273;48.464;11.926;2023-02-10T02:54:48;64.43;;;33.08;;
4521;SDS011;2273;48.464;11.926;2023-02-10T02:57:27;72.30;;;32.00;;
4521;SDS011;2273;48.464;11.926;2023-02-10T03:00:04;73.38;;;34.28;;
4521;SDS011;2273;48.464;11.926;2023-02-10T03:02:31;74.88;;;32.35;;
4521;SDS011;2273;48.464;11.926;2023-02-10T03:04:58;69.72;;;32.47;;
4521;SDS011;2273;48.464;11.926;2023-02-10T03:07:24;65.17;;;31.53;;
4521;SDS011;2273;48.464;11.926;2023-02-10T03:09:50;69.43;;;33.27;;
4521;SDS011;2273;48.464;11.926;2023-02-10T03:12:15;68.20;;;31.80;;
4521;SDS011;2273;48.464;11.926;2023-02-10T03:14:41;68.87;;;31.37;;
4521;SDS011;2273;48.464;11.926;2023-02-10T03:17:06;69.30;;;34.00;;
4521;SDS011;2273;48.464;11.926;2023-02-10T03:19:32;67.33;;;32.77;;
4521;SDS011;2273;48.464;11.926;2023-02-10T03:21:57;73.67;;;35.07;;
4521;SDS011;2273;48.464;11.926;2023-02-10T03:24:22;75.00;;;35.10;;
4521;SDS011;2273;48.464;11.926;2023-02-10T03:26:48;71.37;;;34.90;;
4521;SDS011;2273;48.464;11.926;2023-02-10T03:29:14;71.13;;;34.40;;
4521;SDS011;2273;48.464;11.926;2023-02-10T03:31:39;75.50;;;32.88;;
4521;SDS011;2273;48.464;11.926;2023-02-10T03:34:05;61.47;;;29.60;;
4521;SDS011;2273;48.464;11.926;2023-02-10T03:36:31;68.80;;;33.30;;
4521;SDS011;2273;48.464;11.926;2023-02-10T03:38:59;62.60;;;29.80;;
4521;SDS011;2273;48.464;11.926;2023-02-10T03:41:25;61.28;;;28.50;;
4521;SDS011;2273;48.464;11.926;2023-02-10T03:43:50;62.20;;;28.83;;
4521;SDS011;2273;48.464;11.926;2023-02-10T03:46:16;65.83;;;32.97;;
4521;SDS011;2273;48.464;11.926;2023-02-10T03:48:41;54.90;;;28.27;;
4521;SDS011;2273;48.464;11.926;2023-02-10T03:51:07;63.87;;;29.00;;
4521;SDS011;2273;48.464;11.926;2023-02-10T03:53:33;59.78;;;30.00;;
4521;SDS011;2273;48.464;11.926;2023-02-10T03:55:59;63.07;;;29.37;;
4521;SDS011;2273;48.464;11.926;2023-02-10T03:58:24;58.23;;;27.77;;
4521;SDS011;2273;48.464;11.926;2023-02-10T04:00:50;63.50;;;29.13;;
4521;SDS011;2273;48.464;11.926;2023-02-10T04:03:15;59.57;;;28.70;;
4521;SDS011;2273;48.464;11.926;2023-02-10T04:05:41;54.80;;;27.57;;
4521;SDS011;2273;48.464;11.926;2023-02-10T04:08:06;55.47;;;28.00;;
4521;SDS011;2273;48.464;11.926;2023-02-10T04:10:32;63.42;;;27.42;;
4521;SDS011;2273;48.464;11.926;2023-02-10T04:12:58;64.40;;;28.63;;
4521;SDS011;2273;48.464;11.926;2023-02-10T04:15:23;53.97;;;25.97;;
4521;SDS011;2273;48.464;11.926;2023-02-10T04:17:49;62.43;;;29.30;;
4521;SDS011;2273;48.464;11.926;2023-02-10T04:20:14;56.60;;;28.60;;
4521;SDS011;2273;48.464;11.926;2023-02-10T04:22:40;66.97;;;29.90;;
4521;SDS011;2273;48.464;11.926;2023-02-10T04:25:05;62.60;;;28.93;;
4521;SDS011;2273;48.464;11.926;2023-02-10T04:27:31;61.27;;;27.73;;
4521;SDS011;2273;48.464;11.926;2023-02-10T04:29:56;60.50;;;30.30;;
4521;SDS011;2273;48.464;11.926;2023-02-10T04:32:22;62.17;;;29.57;;
4521;SDS011;2273;48.464;11.926;2023-02-10T04:34:48;60.77;;;30.70;;
4521;SDS011;2273;48.464;11.926;2023-02-10T04:37:13;63.67;;;29.90;;
4521;SDS011;2273;48.464;11.926;2023-02-10T04:39:39;60.17;;;30.67;;
4521;SDS011;2273;48.464;11.926;2023-02-10T04:42:04;64.40;;;29.37;;
4521;SDS011;2273;48.464;11.926;2023-02-10T04:44:30;66.30;;;31.30;;
4521;SDS011;2273;48.464;11.926;2023-02-10T04:46:55;67.10;;;31.23;;
4521;SDS011;2273;48.464;11.926;2023-02-10T04:49:21;58.47;;;28.37;;
4521;SDS011;2273;48.464;11.926;2023-02-10T04:51:46;62.80;;;29.83;;
4521;SDS011;2273;48.464;11.926;2023-02-10T04:54:12;68.10;;;29.33;;
4521;SDS011;2273;48.464;11.926;2023-02-10T04:56:37;57.50;;;27.43;;
4521;SDS011;2273;48.464;11.926;2023-02-10T04:59:03;59.20;;;28.07;;
4521;SDS011;2273;48.464;11.926;2023-02-10T05:01:28;55.23;;;27.90;;
4521;SDS011;2273;48.464;11.926;2023-02-10T05:03:53;61.17;;;29.73;;
4521;SDS011;2273;48.464;11.926;2023-02-10T05:06:19;62.60;;;29.17;;
4521;SDS011;2273;48.464;11.926;2023-02-10T05:08:44;63.03;;;28.20;;
4521;SDS011;2273;48.464;11.926;2023-02-10T05:11:10;56.07;;;28.70;;
4521;SDS011;2273;48.464;11.926;2023-02-10T05:13:36;55.90;;;27.10;;
4521;SDS011;2273;48.464;11.926;2023-02-10T05:16:02;54.03;;;27.60;;
4521;SDS011;2273;48.464;11.926;2023-02-10T05:18:31;61.50;;;29.40;;
4521;SDS011;2273;48.464;11.926;2023-02-10T05:20:57;58.95;;;28.60;;
4521;SDS011;2273;48.464;11.926;2023-02-10T05:23:23;54.37;;;26.63;;
4521;SDS011;2273;48.464;11.926;2023-02-10T05:25:48;59.13;;;30.13;;
4521;SDS011;2273;48.464;11.926;2023-02-10T05:28:13;57.77;;;28.60;;
4521;SDS011;2273;48.464;11.926;2023-02-10T05:30:39;64.23;;;28.63;;
4521;SDS011;2273;48.464;11.926;2023-02-10T05:33:05;54.80;;;26.57;;
4521;SDS011;2273;48.464;11.926;2023-02-10T05:35:30;56.50;;;27.30;;
4521;SDS011;2273;48.464;11.926;2023-02-10T05:37:55;65.33;;;26.00;;
4521;SDS011;2273;48.464;11.926;2023-02-10T05:40:21;59.30;;;29.20;;
4521;SDS011;2273;48.464;11.926;2023-02-10T05:42:47;59.67;;;29.00;;
4521;SDS011;2273;48.464;11.926;2023-02-10T05:45:12;59.40;;;26.33;;
4521;SDS011;2273;48.464;11.926;2023-02-10T05:47:38;63.00;;;29.87;;
4521;SDS011;2273;48.464;11.926;2023-02-10T05:50:03;61.40;;;29.97;;
4521;SDS011;2273;48.464;11.926;2023-02-10T05:52:29;60.27;;;29.17;;
4521;SDS011;2273;48.464;11.926;2023-02-10T05:54:54;51.97;;;27.17;;
4521;SDS011;2273;48.464;11.926;2023-02-10T05:57:20;61.73;;;30.43;;
4521;SDS011;2273;48.464;11.926;2023-02-10T05:59:45;62.50;;;29.20;;
4521;SDS011;2273;48.464;11.926;2023-02-10T06:02:10;64.50;;;30.77;;
4521;SDS011;2273;48.464;11.926;2023-02-10T06:04:36;59.47;;;30.03;;
4521;SDS011;2273;48.464;11.926;2023-02-10T06:07:01;56.53;;;29.27;;
4521;SDS011;2273;48.464;11.926;2023-02-10T06:09:27;60.93;;;28.87;;
4521;SDS011;2273;48.464;11.926;2023-02-10T06:11:52;52.90;;;26.93;;
4521;SDS011;2273;48.464;11.926;2023-02-10T06:14:18;61.23;;;29.20;;
4521;SDS011;2273;48.464;11.926;2023-02-10T06:16:44;61.25;;;29.60;;
4521;SDS011;2273;48.464;11.926;2023-02-10T06:19:10;62.90;;;27.87;;
4521;SDS011;2273;48.464;11.926;2023-02-10T06:21:35;56.77;;;27.37;;
4521;SDS011;2273;48.464;11.926;2023-02-10T06:24:00;55.97;;;29.70;;
4521;SDS011;2273;48.464;11.926;2023-02-10T06:26:26;53.27;;;27.10;;
4521;SDS011;2273;48.464;11.926;2023-02-10T06:28:53;59.15;;;28.90;;
4521;SDS011;2273;48.464;11.926;2023-02-10T06:31:19;57.60;;;28.40;;
4521;SDS011;2273;48.464;11.926;2023-02-10T06:33:44;59.23;;;28.47;;
4521;SDS011;2273;48.464;11.926;2023-02-10T06:36:10;58.10;;;27.83;;
4521;SDS011;2273;48.464;11.926;2023-02-10T06:38:36;57.20;;;27.47;;
4521;SDS011;2273;48.464;11.926;2023-02-10T06:41:02;65.30;;;28.37;;
4521;SDS011;2273;48.464;11.926;2023-02-10T06:43:27;60.78;;;28.88;;
4521;SDS011;2273;48.464;11.926;2023-02-10T06:45:53;61.07;;;28.23;;
4521;SDS011;2273;48.464;11.926;2023-02-10T06:48:19;55.57;;;27.60;;
4521;SDS011;2273;48.464;11.926;2023-02-10T06:50:44;63.80;;;30.07;;
4521;SDS011;2273;48.464;11.926;2023-02-10T06:53:09;61.17;;;28.63;;
4521;SDS011;2273;48.464;11.926;2023-02-10T06:55:35;55.33;;;26.73;;
4521;SDS011;2273;48.464;11.926;2023-02-10T06:58:00;52.30;;;26.90;;
4521;SDS011;2273;48.464;11.926;2023-02-10T07:00:26;57.33;;;28.80;;
4521;SDS011;2273;48.464;11.926;2023-02-10T07:02:52;62.43;;;29.20;;
4521;SDS011;2273;48.464;11.926;2023-02-10T07:05:18;63.07;;;29.30;;
4521;SDS011;2273;48.464;11.926;2023-02-10T07:07:43;64.27;;;29.00;;
4521;SDS011;2273;48.464;11.926;2023-02-10T07:10:09;61.53;;;29.37;;
4521;SDS011;2273;48.464;11.926;2023-02-10T07:12:35;57.53;;;28.90;;
4521;SDS011;2273;48.464;11.926;2023-02-10T07:15:00;57.70;;;28.97;;
4521;SDS011;2273;48.464;11.926;2023-02-10T07:17:26;66.33;;;28.93;;
4521;SDS011;2273;48.464;11.926;2023-02-10T07:19:51;62.00;;;29.60;;
4521;SDS011;2273;48.464;11.926;2023-02-10T07:22:17;58.20;;;28.17;;
4521;SDS011;2273;48.464;11.926;2023-02-10T07:24:42;55.23;;;29.60;;
4521;SDS011;2273;48.464;11.926;2023-02-10T07:27:08;66.47;;;31.07;;
4521;SDS011;2273;48.464;11.926;2023-02-10T07:29:33;66.30;;;31.23;;
4521;SDS011;2273;48.464;11.926;2023-02-10T07:31:58;73.87;;;34.70;;
4521;SDS011;2273;48.464;11.926;2023-02-10T07:34:24;81.27;;;36.70;;
4521;SDS011;2273;48.464;11.926;2023-02-10T07:36:50;68.82;;;33.67;;
4521;SDS011;2273;48.464;11.926;2023-02-10T07:39:25;68.97;;;33.85;;
4521;SDS011;2273;48.464;11.926;2023-02-10T07:41:51;78.22;;;38.40;;
4521;SDS011;2273;48.464;11.926;2023-02-10T07:44:19;90.10;;;39.60;;
4521;SDS011;2273;48.464;11.926;2023-02-10T07:46:46;87.65;;;41.92;;
4521;SDS011;2273;48.464;11.926;2023-02-10T07:49:12;78.13;;;36.38;;
4521;SDS011;2273;48.464;11.926;2023-02-10T07:51:37;81.13;;;37.00;;
4521;SDS011;2273;48.464;11.926;2023-02-10T07:54:02;80.40;;;36.63;;
4521;SDS011;2273;48.464;11.926;2023-02-10T07:56:28;68.40;;;34.63;;
4521;SDS011;2273;48.464;11.926;2023-02-10T07:58:53;70.57;;;33.73;;
4521;SDS011;2273;48.464;11.926;2023-02-10T08:01:19;58.80;;;30.70;;
4521;SDS011;2273;48.464;11.926;2023-02-10T08:03:44;62.20;;;32.00;;
4521;SDS011;2273;48.464;11.926;2023-02-10T08:06:10;66.87;;;31.30;;
4521;SDS011;2273;48.464;11.926;2023-02-10T08:08:35;68.37;;;31.80;;
4521;SDS011;2273;48.464;11.926;2023-02-10T08:11:06;66.23;;;31.27;;
4521;SDS011;2273;48.464;11.926;2023-02-10T08:13:32;62.63;;;31.75;;
4521;SDS011;2273;48.464;11.926;2023-02-10T08:15:58;72.83;;;31.87;;
4521;SDS011;2273;48.464;11.926;2023-02-10T08:18:23;62.17;;;29.13;;
4521;SDS011;2273;48.464;11.926;2023-02-10T08:20:49;59.63;;;29.13;;
4521;SDS011;2273;48.464;11.926;2023-02-10T08:23:15;62.20;;;31.73;;
4521;SDS011;2273;48.464;11.926;2023-02-10T08:25:41;75.28;;;30.83;;
4521;SDS011;2273;48.464;11.926;2023-02-10T08:28:07;62.63;;;28.60;;
4521;SDS011;2273;48.464;11.926;2023-02-10T08:30:32;60.70;;;30.23;;
4521;SDS011;2273;48.464;11.926;2023-02-10T08:32:58;56.70;;;29.23;;
4521;SDS011;2273;48.464;11.926;2023-02-10T08:35:24;59.43;;;29.93;;
4521;SDS011;2273;48.464;11.926;2023-02-10T08:37:49;50.23;;;28.17;;
4521;SDS011;2273;48.464;11.926;2023-02-10T08:40:15;63.53;;;29.17;;
4521;SDS011;2273;48.464;11.926;2023-02-10T08:42:40;58.67;;;28.90;;
4521;SDS011;2273;48.464;11.926;2023-02-10T08:45:05;63.93;;;31.40;;
4521;SDS011;2273;48.464;11.926;2023-02-10T08:47:32;67.40;;;31.90;;
4521;SDS011;2273;48.464;11.926;2023-02-10T08:49:58;57.40;;;28.95;;
4521;SDS011;2273;48.464;11.926;2023-02-10T08:52:24;61.77;;;32.57;;
4521;SDS011;2273;48.464;11.926;2023-02-10T08:54:49;57.83;;;30.27;;
4521;SDS011;2273;48.464;11.926;2023-02-10T08:57:15;61.67;;;29.40;;
4521;SDS011;2273;48.464;11.926;2023-02-10T08:59:40;57.50;;;28.23;;
4521;SDS011;2273;48.464;11.926;2023-02-10T09:02:06;56.00;;;27.23;;
4521;SDS011;2273;48.464;11.926;2023-02-10T09:04:31;55.60;;;29.37;;
4521;SDS011;2273;48.464;11.926;2023-02-10T09:06:57;54.63;;;28.50;;
4521;SDS011;2273;48.464;11.926;2023-02-10T09:09:22;57.80;;;30.37;;
4521;SDS011;2273;48.464;11.926;2023-02-10T09:11:50;55.38;;;28.25;;
4521;SDS011;2273;48.464;11.926;2023-02-10T09:14:15;52.92;;;28.00;;
4521;SDS011;2273;48.464;11.926;2023-02-10T09:16:41;56.27;;;28.30;;
4521;SDS011;2273;48.464;11.926;2023-02-10T09:19:07;56.33;;;27.88;;
4521;SDS011;2273;48.464;11.926;2023-02-10T09:21:32;47.80;;;24.80;;
4521;SDS011;2273;48.464;11.926;2023-02-10T09:23:58;53.40;;;26.00;;
4521;SDS011;2273;48.464;11.926;2023-02-10T09:26:23;48.23;;;26.30;;
4521;SDS011;2273;48.464;11.926;2023-02-10T09:28:49;54.10;;;26.33;;
4521;SDS011;2273;48.464;11.926;2023-02-10T09:31:15;50.77;;;26.77;;
4521;SDS011;2273;48.464;11.926;2023-02-10T09:33:41;54.97;;;27.50;;
4521;SDS011;2273;48.464;11.926;2023-02-10T09:36:08;51.17;;;26.20;;
4521;SDS011;2273;48.464;11.926;2023-02-10T09:38:38;50.58;;;26.45;;
4521;SDS011;2273;48.464;11.926;2023-02-10T09:43:52;48.25;;;26.15;;
4521;SDS011;2273;48.464;11.926;2023-02-10T09:54:58;50.33;;;25.73;;
4521;SDS011;2273;48.464;11.926;2023-02-10T09:57:37;54.20;;;27.70;;
4521;SDS011;2273;48.464;11.926;2023-02-10T10:00:08;56.45;;;27.08;;
4521;SDS011;2273;48.464;11.926;2023-02-10T10:02:45;59.30;;;28.73;;
4521;SDS011;2273;48.464;11.926;2023-02-10T10:05:19;55.20;;;27.88;;
4521;SDS011;2273;48.464;11.926;2023-02-10T10:07:49;52.63;;;26.90;;
4521;SDS011;2273;48.464;11.926;2023-02-10T10:10:26;56.88;;;27.13;;
4521;SDS011;2273;48.464;11.926;2023-02-10T10:12:56;63.35;;;27.48;;
4521;SDS011;2273;48.464;11.926;2023-02-10T10:15:22;54.13;;;29.13;;
4521;SDS011;2273;48.464;11.926;2023-02-10T10:23:30;60.65;;;28.42;;
4521;SDS011;2273;48.464;11.926;2023-02-10T10:28:49;54.70;;;27.00;;
4521;SDS011;2273;48.464;11.926;2023-02-10T10:31:30;57.17;;;26.85;;
4521;SDS011;2273;48.464;11.926;2023-02-10T10:36:36;55.50;;;28.20;;
4521;SDS011;2273;48.464;11.926;2023-02-10T10:39:28;53.88;;;29.00;;
4521;SDS011;2273;48.464;11.926;2023-02-10T10:42:29;56.45;;;29.35;;
4521;SDS011;2273;48.464;11.926;2023-02-10T10:45:06;52.58;;;28.98;;
4521;SDS011;2273;48.464;11.926;2023-02-10T10:47:58;64.15;;;28.60;;
4521;SDS011;2273;48.464;11.926;2023-02-10T10:50:29;52.30;;;27.45;;
4521;SDS011;2273;48.464;11.926;2023-02-10T10:52:55;55.67;;;28.13;;
4521;SDS011;2273;48.464;11.926;2023-02-10T10:55:22;54.95;;;28.20;;
4521;SDS011;2273;48.464;11.926;2023-02-10T10:57:51;61.10;;;29.80;;
4521;SDS011;2273;48.464;11.926;2023-02-10T11:00:22;59.95;;;29.92;;
4521;SDS011;2273;48.464;11.926;2023-02-10T11:02:54;52.08;;;28.67;;
4521;SDS011;2273;48.464;11.926;2023-02-10T11:05:26;51.20;;;27.23;;
4521;SDS011;2273;48.464;11.926;2023-02-10T11:07:53;59.30;;;29.23;;
4521;SDS011;2273;48.464;11.926;2023-02-10T11:10:28;63.80;;;30.10;;
4521;SDS011;2273;48.464;11.926;2023-02-10T11:12:58;64.20;;;29.75;;
4521;SDS011;2273;48.464;11.926;2023-02-10T11:18:02;54.47;;;28.08;;
4521;SDS011;2273;48.464;11.926;2023-02-10T11:20:31;49.53;;;28.25;;
4521;SDS011;2273;48.464;11.926;2023-02-10T11:23:03;53.38;;;26.88;;
4521;SDS011;2273;48.464;11.926;2023-02-10T11:25:36;53.10;;;27.20;;
4521;SDS011;2273;48.464;11.926;2023-02-10T11:28:02;52.38;;;28.60;;
4521;SDS011;2273;48.464;11.926;2023-02-10T11:30:31;50.55;;;28.05;;
4521;SDS011;2273;48.464;11.926;2023-02-10T11:32:58;59.25;;;28.55;;
4521;SDS011;2273;48.464;11.926;2023-02-10T11:35:25;53.83;;;27.20;;
4521;SDS011;2273;48.464;11.926;2023-02-10T11:37:54;47.00;;;25.60;;
4521;SDS011;2273;48.464;11.926;2023-02-10T11:40:26;53.00;;;26.38;;
4521;SDS011;2273;48.464;11.926;2023-02-10T11:42:54;49.47;;;26.80;;
4521;SDS011;2273;48.464;11.926;2023-02-10T11:45:31;44.67;;;25.52;;
4521;SDS011;2273;48.464;11.926;2023-02-10T11:48:05;48.20;;;25.88;;
4521;SDS011;2273;48.464;11.926;2023-02-10T11:50:38;48.88;;;25.65;;
4521;SDS011;2273;48.464;11.926;2023-02-10T11:53:03;49.00;;;26.47;;
4521;SDS011;2273;48.464;11.926;2023-02-10T11:55:41;54.73;;;28.30;;
4521;SDS011;2273;48.464;11.926;2023-02-10T11:58:33;50.58;;;27.67;;
4521;SDS011;2273;48.464;11.926;2023-02-10T12:01:32;52.13;;;25.70;;
4521;SDS011;2273;48.464;11.926;2023-02-10T12:04:01;51.97;;;27.40;;
4521;SDS011;2273;48.464;11.926;2023-02-10T12:06:33;52.35;;;27.27;;
4521;SDS011;2273;48.464;11.926;2023-02-10T12:09:04;50.13;;;27.35;;
4521;SDS011;2273;48.464;11.926;2023-02-10T12:11:39;64.40;;;27.98;;
4521;SDS011;2273;48.464;11.926;2023-02-10T12:19:50;59.40;;;26.03;;
4521;SDS011;2273;48.464;11.926;2023-02-10T12:22:32;53.50;;;26.35;;
4521;SDS011;2273;48.464;11.926;2023-02-10T12:25:18;44.03;;;25.95;;
4521;SDS011;2273;48.464;11.926;2023-02-10T12:35:42;49.17;;;27.43;;
4521;SDS011;2273;48.464;11.926;2023-02-10T13:00:23;48.07;;;25.27;;
4521;SDS011;2273;48.464;11.926;2023-02-10T13:02:54;52.27;;;27.50;;
4521;SDS011;2273;48.464;11.926;2023-02-10T13:05:32;51.40;;;28.17;;
4521;SDS011;2273;48.464;11.926;2023-02-10T13:08:02;45.05;;;25.40;;
4521;SDS011;2273;48.464;11.926;2023-02-10T13:10:42;48.57;;;26.50;;
4521;SDS011;2273;48.464;11.926;2023-02-10T13:13:16;50.50;;;27.20;;
4521;SDS011;2273;48.464;11.926;2023-02-10T13:15:49;49.00;;;27.53;;
4521;SDS011;2273;48.464;11.926;2023-02-10T13:18:19;47.60;;;27.50;;
4521;SDS011;2273;48.464;11.926;2023-02-10T13:20:51;50.93;;;26.43;;
4521;SDS011;2273;48.464;11.926;2023-02-10T13:28:32;54.03;;;27.80;;
4521;SDS011;2273;48.464;11.926;2023-02-10T13:31:27;49.70;;;26.55;;
4521;SDS011;2273;48.464;11.926;2023-02-10T13:34:11;51.53;;;27.60;;
4521;SDS011;2273;48.464;11.926;2023-02-10T13:36:47;46.30;;;25.60;;
4521;SDS011;2273;48.464;11.926;2023-02-10T13:39:17;47.03;;;26.37;;
4521;SDS011;2273;48.464;11.926;2023-02-10T13:41:46;50.00;;;26.73;;
4521;SDS011;2273;48.464;11.926;2023-02-10T13:44:19;45.57;;;27.00;;
4521;SDS011;2273;48.464;11.926;2023-02-10T13:46:53;55.07;;;27.07;;
4521;SDS011;2273;48.464;11.926;2023-02-10T13:49:21;53.80;;;28.77;;
4521;SDS011;2273;48.464;11.926;2023-02-10T13:51:48;44.53;;;25.73;;
4521;SDS011;2273;48.464;11.926;2023-02-10T13:54:25;52.23;;;27.03;;
4521;SDS011;2273;48.464;11.926;2023-02-10T13:56:54;49.83;;;25.73;;
4521;SDS011;2273;48.464;11.926;2023-02-10T14:02:00;47.27;;;25.73;;
4521;SDS011;2273;48.464;11.926;2023-02-10T14:04:40;43.77;;;25.17;;
4521;SDS011;2273;48.464;11.926;2023-02-10T14:10:00;44.03;;;25.00;;
4521;SDS011;2273;48.464;11.926;2023-02-10T14:12:31;59.60;;;29.97;;
4521;SDS011;2273;48.464;11.926;2023-02-10T14:15:08;70.60;;;26.03;;
4521;SDS011;2273;48.464;11.926;2023-02-10T14:17:59;50.07;;;25.23;;
4521;SDS011;2273;48.464;11.926;2023-02-10T14:20:28;47.93;;;26.47;;
4521;SDS011;2273;48.464;11.926;2023-02-10T14:22:55;50.95;;;26.75;;
4521;SDS011;2273;48.464;11.926;2023-02-10T14:28:05;46.47;;;24.80;;
4521;SDS011;2273;48.464;11.926;2023-02-10T14:33:24;57.38;;;26.88;;
4521;SDS011;2273;48.464;11.926;2023-02-10T14:35:53;57.95;;;29.88;;
4521;SDS011;2273;48.464;11.926;2023-02-10T14:38:31;47.92;;;24.60;;
4521;SDS011;2273;48.464;11.926;2023-02-10T14:40:59;48.70;;;26.43;;
4521;SDS011;2273;48.464;11.926;2023-02-10T14:43:29;42.95;;;25.50;;
4521;SDS011;2273;48.464;11.926;2023-02-10T14:45:57;52.15;;;25.95;;
4521;SDS011;2273;48.464;11.926;2023-02-10T14:48:23;42.85;;;24.75;;
4521;SDS011;2273;48.464;11.926;2023-02-10T14:50:56;50.35;;;26.02;;
4521;SDS011;2273;48.464;11.926;2023-02-10T14:53:30;43.63;;;25.77;;
4521;SDS011;2273;48.464;11.926;2023-02-10T14:55:56;50.73;;;24.70;;
4521;SDS011;2273;48.464;11.926;2023-02-10T14:58:23;46.40;;;25.60;;
4521;SDS011;2273;48.464;11.926;2023-02-10T15:03:41;43.43;;;24.57;;
4521;SDS011;2273;48.464;11.926;2023-02-10T15:06:06;52.53;;;27.40;;
4521;SDS011;2273;48.464;11.926;2023-02-10T15:08:34;44.43;;;25.30;;
4521;SDS011;2273;48.464;11.926;2023-02-10T15:11:08;46.23;;;25.10;;
4521;SDS011;2273;48.464;11.926;2023-02-10T15:13:43;42.92;;;24.17;;
4521;SDS011;2273;48.464;11.926;2023-02-10T15:16:10;46.77;;;25.40;;
4521;SDS011;2273;48.464;11.926;2023-02-10T15:18:39;43.20;;;23.93;;
4521;SDS011;2273;48.464;11.926;2023-02-10T15:21:21;44.00;;;24.80;;
4521;SDS011;2273;48.464;11.926;2023-02-10T15:23:49;56.30;;;25.20;;
4521;SDS011;2273;48.464;11.926;2023-02-10T15:26:19;53.07;;;26.17;;
4521;SDS011;2273;48.464;11.926;2023-02-10T15:28:45;53.87;;;24.33;;
4521;SDS011;2273;48.464;11.926;2023-02-10T15:31:24;45.07;;;26.10;;
4521;SDS011;2273;48.464;11.926;2023-02-10T15:33:54;49.90;;;26.53;;
4521;SDS011;2273;48.464;11.926;2023-02-10T15:36:28;45.47;;;25.37;;
4521;SDS011;2273;48.464;11.926;2023-02-10T15:39:02;43.20;;;24.57;;
4521;SDS011;2273;48.464;11.926;2023-02-10T15:41:34;44.83;;;25.27;;
4521;SDS011;2273;48.464;11.926;2023-02-10T15:44:22;48.20;;;27.03;;
4521;SDS011;2273;48.464;11.926;2023-02-10T15:47:10;48.27;;;27.03;;
4521;SDS011;2273;48.464;11.926;2023-02-10T15:49:46;47.97;;;25.63;;
4521;SDS011;2273;48.464;11.926;2023-02-10T15:52:38;47.17;;;25.90;;
4521;SDS011;2273;48.464;11.926;2023-02-10T15:55:05;46.10;;;24.73;;
4521;SDS011;2273;48.464;11.926;2023-02-10T15:57:37;49.70;;;26.00;;
4521;SDS011;2273;48.464;11.926;2023-02-10T16:00:03;47.73;;;25.57;;
4521;SDS011;2273;48.464;11.926;2023-02-10T16:02:34;45.37;;;25.73;;
4521;SDS011;2273;48.464;11.926;2023-02-10T16:05:00;47.43;;;26.43;;
4521;SDS011;2273;48.464;11.926;2023-02-10T16:07:25;42.73;;;23.63;;
4521;SDS011;2273;48.464;11.926;2023-02-10T16:09:54;49.53;;;27.87;;
4521;SDS011;2273;48.464;11.926;2023-02-10T16:12:20;47.30;;;24.47;;
4521;SDS011;2273;48.464;11.926;2023-02-10T16:14:46;46.07;;;23.33;;
4521;SDS011;2273;48.464;11.926;2023-02-10T16:17:15;42.17;;;23.80;;
4521;SDS011;2273;48.464;11.926;2023-02-10T16:19:47;51.03;;;24.63;;
4521;SDS011;2273;48.464;11.926;2023-02-10T16:22:13;41.57;;;24.87;;
4521;SDS011;2273;48.464;11.926;2023-02-10T16:24:38;44.50;;;24.70;;